Terminal Aerodrome Forecast
Issued by NWS

Home | Current Version | Previous Version | Text Only | Print | Product List | Glossary On
Versions: 1 2 3 4 5 6 7 8 9 10 11 12 13 14 15
000
FTUS45 KMSO 091720
TAFSMN
TAF
KSMN 091720Z 0918/1018 VRB03KT P6SM VCSH BKN050 OVC080
     FM100200 VRB03KT 3SM -SN BR BKN025 OVC040
     FM101000 VRB03KT 2SM -SN BR SCT007 BKN015
      AMD LTD TO CLD VIS AND WIND=

USA.gov is the U.S. government's official web portal to all federal, state and local government web resources and services.